createdAt,value
2017-06-05T00:01:45.197Z,81.00
2017-06-05T00:04:12.738Z,80.90
2017-06-05T00:06:41.027Z,79.90
2017-06-05T00:09:08.576Z,79.90
2017-06-05T00:11:36.873Z,78.10
2017-06-05T00:14:04.443Z,77.90
2017-06-05T00:16:31.967Z,78.60
2017-06-05T00:19:00.263Z,80.80
2017-06-05T00:21:27.808Z,80.70
2017-06-05T00:23:56.096Z,82.30
2017-06-05T00:26:23.643Z,82.20
2017-06-05T00:28:51.931Z,81.30
2017-06-05T00:31:20.243Z,80.50
2017-06-05T00:33:47.769Z,80.50
2017-06-05T00:36:15.341Z,80.70
2017-06-05T00:38:42.871Z,80.70
2017-06-05T00:41:11.167Z,81.70
2017-06-05T00:43:38.721Z,80.90
2017-06-05T00:46:06.251Z,80.10
2017-06-05T00:48:33.791Z,79.80
2017-06-05T00:51:01.315Z,78.80
2017-06-05T00:53:28.852Z,79.00
2017-06-05T00:55:56.379Z,79.60
2017-06-05T00:58:23.949Z,80.50
2017-06-05T01:00:51.471Z,80.10
2017-06-05T01:03:19.767Z,79.90
2017-06-05T01:05:47.314Z,79.80
2017-06-05T01:08:15.606Z,80.40
2017-06-05T01:10:43.152Z,80.20
2017-06-05T01:13:10.678Z,81.00
2017-06-05T01:15:38.218Z,81.30
2017-06-05T01:18:05.744Z,79.90
2017-06-05T01:20:33.266Z,79.80
2017-06-05T01:23:00.806Z,80.20
2017-06-05T01:25:28.331Z,80.30
2017-06-05T01:27:55.876Z,80.90
2017-06-05T01:30:23.408Z,80.70
2017-06-05T01:32:50.950Z,80.30
2017-06-05T01:35:18.479Z,80.50
2017-06-05T01:37:46.048Z,81.00
2017-06-05T01:40:13.601Z,79.90
2017-06-05T01:42:41.135Z,78.10
2017-06-05T01:45:08.683Z,78.30
2017-06-05T01:47:36.212Z,79.60
2017-06-05T01:50:03.769Z,81.00
2017-06-05T01:52:31.294Z,81.20
2017-06-05T01:54:59.591Z,81.30
2017-06-05T01:57:27.136Z,81.30
2017-06-05T01:59:54.660Z,81.30
2017-06-05T02:02:22.213Z,81.80
2017-06-05T02:04:49.747Z,81.80
2017-06-05T02:07:17.294Z,81.50
2017-06-05T02:09:44.828Z,81.50
2017-06-05T02:12:13.141Z,80.70
2017-06-05T02:14:40.672Z,80.70
2017-06-05T02:17:08.199Z,80.50
2017-06-05T02:19:35.751Z,80.20
2017-06-05T02:22:03.282Z,80.40
2017-06-05T02:24:30.831Z,80.50
2017-06-05T02:26:58.355Z,80.50
2017-06-05T02:29:25.903Z,80.50
2017-06-05T02:31:53.436Z,80.30
2017-06-05T02:34:20.984Z,80.60
2017-06-05T02:36:48.543Z,80.80
2017-06-05T02:39:16.068Z,81.10
2017-06-05T02:41:43.618Z,81.60
2017-06-05T02:44:11.149Z,81.80
2017-06-05T02:46:38.691Z,81.20
2017-06-05T02:49:06.225Z,81.00
2017-06-05T02:51:33.752Z,80.50
2017-06-05T02:54:01.299Z,80.30
2017-06-05T02:56:28.822Z,80.40
2017-06-05T02:58:57.136Z,81.30
2017-06-05T03:01:25.478Z,81.30
2017-06-05T03:03:53.048Z,81.60
2017-06-05T03:06:20.580Z,81.80
2017-06-05T03:08:48.107Z,81.80
2017-06-05T03:11:15.648Z,80.60
2017-06-05T03:13:43.183Z,80.70
2017-06-05T03:16:11.495Z,81.90
2017-06-05T03:18:39.024Z,81.80
2017-06-05T03:21:07.348Z,83.20
2017-06-05T03:23:34.876Z,82.40
2017-06-05T03:26:02.406Z,82.50
2017-06-05T03:28:29.955Z,82.40
2017-06-05T03:30:57.480Z,82.00
2017-06-05T03:33:25.029Z,81.50
2017-06-05T03:35:52.564Z,81.80
2017-06-05T03:38:20.903Z,82.30
2017-06-05T03:40:48.434Z,82.20
2017-06-05T03:43:15.968Z,82.10
2017-06-05T03:45:44.283Z,82.40
2017-06-05T03:48:11.807Z,82.20
2017-06-05T03:50:39.354Z,82.30
2017-06-05T03:53:06.883Z,82.40
2017-06-05T03:55:34.430Z,83.10
2017-06-05T03:58:01.958Z,82.90
2017-06-05T04:00:29.532Z,82.70
2017-06-05T04:02:57.063Z,82.40
2017-06-05T04:05:24.594Z,82.00
2017-06-05T04:07:52.905Z,81.20
2017-06-05T04:10:20.439Z,81.10
2017-06-05T04:12:48.760Z,80.80
2017-06-05T04:15:16.287Z,80.70
2017-06-05T04:17:43.839Z,80.70
2017-06-05T04:20:11.371Z,80.70
2017-06-05T04:22:39.681Z,81.90
2017-06-05T04:25:07.217Z,81.90
2017-06-05T04:27:34.772Z,82.50
2017-06-05T04:30:03.067Z,83.20
2017-06-05T04:32:30.594Z,83.00
2017-06-05T04:34:58.911Z,84.10
2017-06-05T04:37:26.440Z,83.20
2017-06-05T04:39:54.751Z,82.70
2017-06-05T04:42:22.280Z,82.70
2017-06-05T04:44:49.833Z,82.60
2017-06-05T04:47:17.356Z,82.30
2017-06-05T04:49:44.908Z,81.60
2017-06-05T04:52:12.436Z,81.40
2017-06-05T04:54:39.968Z,80.90
2017-06-05T04:57:07.516Z,80.10
2017-06-05T04:59:35.047Z,79.70
2017-06-05T05:02:02.593Z,78.60
2017-06-05T05:04:30.893Z,78.50
2017-06-05T05:06:58.448Z,78.40
2017-06-05T05:09:25.984Z,79.00
2017-06-05T05:11:54.323Z,78.00
2017-06-05T05:14:21.855Z,78.00
2017-06-05T05:16:49.384Z,77.90
2017-06-05T05:19:17.694Z,76.90
2017-06-05T05:21:45.223Z,76.70
2017-06-05T05:24:13.534Z,76.90
2017-06-05T05:26:41.831Z,77.10
2017-06-05T05:29:09.378Z,76.90
2017-06-05T05:31:36.906Z,77.20
2017-06-05T05:34:04.451Z,75.90
2017-06-05T05:36:31.976Z,72.70
2017-06-05T05:38:59.501Z,71.60
2017-06-05T05:41:27.046Z,72.10
2017-06-05T05:43:54.575Z,71.70
2017-06-05T05:46:22.117Z,70.70
2017-06-05T05:48:49.655Z,70.50
2017-06-05T05:51:17.968Z,71.30
2017-06-05T05:53:45.492Z,71.20
2017-06-05T05:56:13.840Z,72.60
2017-06-05T05:58:41.369Z,72.50
2017-06-05T06:01:08.892Z,72.40
2017-06-05T06:03:37.209Z,72.40
2017-06-05T06:06:04.735Z,72.20
2017-06-05T06:08:33.059Z,72.70
2017-06-05T06:11:00.579Z,72.50
2017-06-05T06:13:28.318Z,72.20
2017-06-05T06:15:55.847Z,71.20
2017-06-05T06:18:23.417Z,71.10
2017-06-05T06:20:50.949Z,69.40
2017-06-05T06:23:18.476Z,68.80
2017-06-05T06:25:46.024Z,70.30
2017-06-05T06:28:13.591Z,70.20
2017-06-05T06:30:41.139Z,70.30
2017-06-05T06:33:09.436Z,70.30
2017-06-05T06:35:36.980Z,70.30
2017-06-05T06:38:04.512Z,70.80
2017-06-05T06:40:32.084Z,70.00
2017-06-05T06:43:00.374Z,64.90
2017-06-05T06:45:28.665Z,64.30
2017-06-05T06:47:56.212Z,64.30
2017-06-05T06:50:23.738Z,62.80
2017-06-05T06:52:51.283Z,63.50
2017-06-05T06:55:18.811Z,61.40
2017-06-05T06:57:46.354Z,62.60
2017-06-05T07:00:13.880Z,61.50
2017-06-05T07:02:41.446Z,62.20
2017-06-05T07:05:08.972Z,60.50
2017-06-05T07:07:36.503Z,61.50
2017-06-05T07:10:04.046Z,61.30
2017-06-05T07:12:31.572Z,59.30
2017-06-05T07:14:59.117Z,62.00
2017-06-05T07:17:27.415Z,59.80
2017-06-05T07:19:54.957Z,59.80
2017-06-05T07:22:23.255Z,63.60
2017-06-05T07:24:50.820Z,63.00
2017-06-05T07:27:18.356Z,62.60
2017-06-05T07:29:46.649Z,62.00
2017-06-05T07:32:14.199Z,62.00
2017-06-05T07:34:41.723Z,60.10
2017-06-05T07:37:09.272Z,60.60
2017-06-05T07:39:37.572Z,61.80
2017-06-05T07:42:05.128Z,61.80
2017-06-05T07:44:32.661Z,61.80
2017-06-05T07:47:01.021Z,62.10
2017-06-05T07:49:28.556Z,62.00
2017-06-05T07:51:56.084Z,61.80
2017-06-05T07:54:23.627Z,63.10
2017-06-05T07:56:51.923Z,61.70
2017-06-05T07:59:19.466Z,61.60
2017-06-05T08:01:47.758Z,61.90
2017-06-05T08:04:15.319Z,61.70
2017-06-05T08:06:42.846Z,61.50
2017-06-05T08:09:10.399Z,63.10
2017-06-05T08:11:37.920Z,60.80
2017-06-05T08:14:06.211Z,61.70
2017-06-05T08:16:33.756Z,61.60
2017-06-05T08:19:02.047Z,59.80
2017-06-05T08:21:29.592Z,59.80
2017-06-05T08:23:57.885Z,59.70
2017-06-05T08:26:25.435Z,59.70
2017-06-05T08:28:53.728Z,57.60
2017-06-05T08:31:21.301Z,57.60
2017-06-05T08:33:48.828Z,58.10
2017-06-05T08:36:16.354Z,58.00
2017-06-05T08:38:43.898Z,57.90
2017-06-05T08:41:11.422Z,57.50
2017-06-05T08:43:38.968Z,55.00
2017-06-05T08:46:06.494Z,56.30
2017-06-05T08:48:34.040Z,55.50
2017-06-05T08:51:01.568Z,55.50
2017-06-05T08:53:29.131Z,55.00
2017-06-05T08:55:56.660Z,53.70
2017-06-05T08:58:24.960Z,53.50
2017-06-05T09:00:52.507Z,53.40
2017-06-05T09:03:20.037Z,53.70
2017-06-05T09:05:47.584Z,53.70
2017-06-05T09:08:15.115Z,54.40
2017-06-05T09:10:43.430Z,53.40
2017-06-05T09:13:10.965Z,53.40
2017-06-05T09:15:38.515Z,55.10
2017-06-05T09:18:06.798Z,55.10
2017-06-05T09:20:34.331Z,55.10
2017-06-05T09:23:01.876Z,54.40
2017-06-05T09:25:29.410Z,54.60
2017-06-05T09:27:56.952Z,52.50
2017-06-05T09:30:25.240Z,51.70
2017-06-05T09:32:52.783Z,51.70
2017-06-05T09:35:21.072Z,52.10
2017-06-05T09:37:49.399Z,51.80
2017-06-05T09:40:16.924Z,51.80
2017-06-05T09:42:44.453Z,52.30
2017-06-05T09:45:12.759Z,52.10
2017-06-05T09:47:40.292Z,51.90
2017-06-05T09:50:07.837Z,52.80
2017-06-05T09:52:35.362Z,53.40
2017-06-05T09:55:02.903Z,54.40
2017-06-05T09:57:30.427Z,53.80
2017-06-05T09:59:58.764Z,53.40
2017-06-05T10:02:26.292Z,53.30
2017-06-05T10:04:53.823Z,53.70
2017-06-05T10:07:21.373Z,54.30
2017-06-05T10:09:48.907Z,53.30
2017-06-05T10:12:16.468Z,52.80
2017-06-05T10:14:43.996Z,52.30
2017-06-05T10:17:11.572Z,51.30
2017-06-05T10:19:39.103Z,50.50
2017-06-05T10:22:06.637Z,50.00
2017-06-05T10:24:34.196Z,50.60
2017-06-05T10:27:02.552Z,50.80
2017-06-05T10:29:30.102Z,50.60
2017-06-05T10:31:57.628Z,51.50
2017-06-05T10:34:25.177Z,52.00
2017-06-05T10:36:52.702Z,52.50
2017-06-05T10:39:21.044Z,53.50
2017-06-05T10:41:48.573Z,53.60
2017-06-05T10:44:16.104Z,52.90
2017-06-05T10:46:43.655Z,53.10
2017-06-05T10:49:11.180Z,54.00
2017-06-05T10:51:38.729Z,55.30
2017-06-05T10:54:06.271Z,56.20
2017-06-05T10:56:33.825Z,56.00
2017-06-05T10:59:01.360Z,56.10
2017-06-05T11:01:29.696Z,55.60
2017-06-05T11:03:57.229Z,55.50
2017-06-05T11:06:24.756Z,54.80
2017-06-05T11:08:52.304Z,55.30
2017-06-05T11:11:19.837Z,55.50
2017-06-05T11:13:48.146Z,56.30
2017-06-05T11:16:15.677Z,56.20
2017-06-05T11:18:43.992Z,53.80
2017-06-05T11:21:11.520Z,53.70
2017-06-05T11:23:39.846Z,56.10
2017-06-05T11:26:07.371Z,56.00
2017-06-05T11:28:34.900Z,57.10
2017-06-05T11:31:02.452Z,57.60
2017-06-05T11:33:29.978Z,58.20
2017-06-05T11:35:57.525Z,59.00
2017-06-05T11:38:25.055Z,60.90
2017-06-05T11:40:53.373Z,60.10
2017-06-05T11:43:20.904Z,60.00
2017-06-05T11:45:49.236Z,61.70
2017-06-05T11:48:16.772Z,61.70
2017-06-05T11:50:44.295Z,60.70
2017-06-05T11:53:12.610Z,63.60
2017-06-05T11:55:40.138Z,63.50
2017-06-05T11:58:08.447Z,64.00
2017-06-05T12:00:35.975Z,63.90
2017-06-05T12:03:03.551Z,61.60
2017-06-05T12:05:31.080Z,62.10
2017-06-05T12:07:59.374Z,62.90
2017-06-05T12:10:27.685Z,61.90
2017-06-05T12:12:55.213Z,61.70
2017-06-05T12:15:22.755Z,62.70
2017-06-05T12:17:51.051Z,62.30
2017-06-05T12:20:18.595Z,62.30
2017-06-05T12:22:46.890Z,62.40
2017-06-05T12:25:14.455Z,62.30
2017-06-05T12:27:41.991Z,61.80
2017-06-05T12:30:09.516Z,61.70
2017-06-05T12:32:37.055Z,63.00
2017-06-05T12:35:04.583Z,62.90
2017-06-05T12:37:32.890Z,65.50
2017-06-05T12:40:00.422Z,65.40
2017-06-05T12:42:27.972Z,66.20
2017-06-05T12:44:56.263Z,64.80
2017-06-05T12:47:23.795Z,64.80
2017-06-05T12:49:51.339Z,65.30
2017-06-05T12:52:18.866Z,66.60
2017-06-05T12:54:46.411Z,66.70
2017-06-05T12:57:13.937Z,67.60
2017-06-05T12:59:41.480Z,67.20
2017-06-05T13:02:09.019Z,66.40
2017-06-05T13:04:36.588Z,66.80
2017-06-05T13:07:04.118Z,67.60
2017-06-05T13:09:31.644Z,66.50
2017-06-05T13:11:59.955Z,66.10
2017-06-05T13:14:27.480Z,66.10
2017-06-05T13:16:55.791Z,66.50
2017-06-05T13:19:23.315Z,66.40
2017-06-05T13:21:51.636Z,66.70
2017-06-05T13:24:19.160Z,66.60
2017-06-05T13:26:47.491Z,63.60
2017-06-05T13:29:15.015Z,63.50
2017-06-05T13:31:42.544Z,62.00
2017-06-05T13:34:10.091Z,64.00
2017-06-05T13:36:37.619Z,62.60
2017-06-05T13:39:05.164Z,62.70
2017-06-05T13:41:32.692Z,61.30
2017-06-05T13:44:01.000Z,61.40
2017-06-05T13:46:28.523Z,61.30
2017-06-05T13:48:56.859Z,62.40
2017-06-05T13:51:24.387Z,62.40
2017-06-05T13:53:51.919Z,63.00
2017-06-05T13:56:20.231Z,67.70
2017-06-05T13:58:47.763Z,67.70
2017-06-05T14:01:15.308Z,67.00
2017-06-05T14:03:42.831Z,65.80
2017-06-05T14:06:10.379Z,62.20
2017-06-05T14:08:37.907Z,61.90
2017-06-05T14:11:05.476Z,61.80
2017-06-05T14:13:33.009Z,63.50
2017-06-05T14:16:00.537Z,62.00
2017-06-05T14:18:28.848Z,59.60
2017-06-05T14:20:56.376Z,59.50
2017-06-05T14:23:24.686Z,59.40
2017-06-05T14:25:52.207Z,59.30
2017-06-05T14:28:20.522Z,57.00
2017-06-05T14:30:48.053Z,56.90
2017-06-05T14:33:15.630Z,55.40
2017-06-05T14:35:43.158Z,56.20
2017-06-05T14:38:11.451Z,53.60
2017-06-05T14:40:38.995Z,53.60
2017-06-05T14:43:07.287Z,52.10
2017-06-05T14:45:34.833Z,52.10
2017-06-05T14:48:02.355Z,52.20
2017-06-05T14:50:30.675Z,51.60
2017-06-05T14:52:58.202Z,51.50
2017-06-05T14:55:26.491Z,50.40
2017-06-05T14:57:54.092Z,50.40
2017-06-05T15:00:21.620Z,49.80
2017-06-05T15:02:49.163Z,51.00
2017-06-05T15:05:16.686Z,49.50
2017-06-05T15:07:44.255Z,49.60
2017-06-05T15:10:12.550Z,52.00
2017-06-05T15:12:40.843Z,51.50
2017-06-05T15:15:08.400Z,51.50
2017-06-05T15:17:35.963Z,52.00
2017-06-05T15:20:03.500Z,52.90
2017-06-05T15:22:31.029Z,53.00
2017-06-05T15:24:58.573Z,53.00
2017-06-05T15:27:26.105Z,54.30
2017-06-05T15:29:54.424Z,53.40
2017-06-05T15:32:21.953Z,53.40
2017-06-05T15:34:49.481Z,53.30
2017-06-05T15:37:17.033Z,54.60
2017-06-05T15:39:44.559Z,55.40
2017-06-05T15:42:12.101Z,55.80
2017-06-05T15:44:39.627Z,57.20
2017-06-05T15:47:07.176Z,56.90
2017-06-05T15:49:34.711Z,56.20
2017-06-05T15:52:02.261Z,55.30
2017-06-05T15:54:29.797Z,56.40
2017-06-05T15:56:57.337Z,56.80
2017-06-05T15:59:25.647Z,54.20
2017-06-05T16:01:53.175Z,54.20
2017-06-05T16:04:21.488Z,58.00
2017-06-05T16:06:49.019Z,57.90
2017-06-05T16:09:17.330Z,58.20
2017-06-05T16:11:44.856Z,58.10
2017-06-05T16:14:13.170Z,58.50
2017-06-05T16:16:40.695Z,58.40
2017-06-05T16:19:08.986Z,60.00
2017-06-05T16:21:36.542Z,59.90
2017-06-05T16:24:04.065Z,60.40
2017-06-05T16:26:31.608Z,59.50
2017-06-05T16:28:59.135Z,60.80
2017-06-05T16:31:26.684Z,60.90
2017-06-05T16:33:54.211Z,61.30
2017-06-05T16:36:21.774Z,59.90
2017-06-05T16:38:50.067Z,61.50
2017-06-05T16:41:18.357Z,59.00
2017-06-05T16:43:45.907Z,58.90
2017-06-05T16:46:13.435Z,58.60
2017-06-05T16:48:40.990Z,58.60
2017-06-05T16:51:08.527Z,59.00
2017-06-05T16:53:36.071Z,60.90
2017-06-05T16:56:03.600Z,60.10
2017-06-05T16:58:31.954Z,59.60
2017-06-05T17:00:59.471Z,59.50
2017-06-05T17:03:26.997Z,59.70
2017-06-05T17:05:55.303Z,59.60
2017-06-05T17:08:22.828Z,59.60
2017-06-05T17:10:51.142Z,60.00
2017-06-05T17:13:18.663Z,60.00
2017-06-05T17:15:46.978Z,60.60
2017-06-05T17:18:14.507Z,60.60
2017-06-05T17:20:42.835Z,60.60
2017-06-05T17:23:10.361Z,59.80
2017-06-05T17:25:37.888Z,60.80
2017-06-05T17:28:05.431Z,60.20
2017-06-05T17:30:32.951Z,60.30
2017-06-05T17:33:00.498Z,61.30
2017-06-05T17:35:28.023Z,61.20
2017-06-05T17:37:55.567Z,62.00
2017-06-05T17:40:23.088Z,62.60
2017-06-05T17:42:50.620Z,62.30
2017-06-05T17:45:18.932Z,63.30
2017-06-05T17:47:46.457Z,63.20
2017-06-05T17:50:14.775Z,63.20
2017-06-05T17:52:42.305Z,63.10
2017-06-05T17:55:09.831Z,64.70
2017-06-05T17:57:37.380Z,64.50
2017-06-05T18:00:04.912Z,64.50
2017-06-05T18:02:32.469Z,64.40
2017-06-05T18:04:59.998Z,64.50
2017-06-05T18:07:28.315Z,65.90
2017-06-05T18:09:55.843Z,65.70
2017-06-05T18:12:23.366Z,66.40
2017-06-05T18:14:50.916Z,66.70
2017-06-05T18:17:18.525Z,66.50
2017-06-05T18:19:46.067Z,67.10
2017-06-05T18:22:13.592Z,67.80
2017-06-05T18:24:41.149Z,68.00
2017-06-05T18:27:08.671Z,68.80
2017-06-05T18:29:36.240Z,69.10
2017-06-05T18:32:03.775Z,69.20
2017-06-05T18:34:31.300Z,69.10
2017-06-05T18:36:58.848Z,69.80
2017-06-05T18:39:26.375Z,70.20
2017-06-05T18:41:54.694Z,71.90
2017-06-05T18:44:22.987Z,72.60
2017-06-05T18:46:51.294Z,72.80
2017-06-05T18:49:18.817Z,72.80
2017-06-05T18:51:46.389Z,73.30
2017-06-05T18:54:13.970Z,74.30
2017-06-05T18:56:41.497Z,74.90
2017-06-05T18:59:09.045Z,75.40
2017-06-05T19:01:36.572Z,75.80
2017-06-05T19:04:08.243Z,75.60
2017-06-05T19:06:36.263Z,75.50
2017-06-05T19:09:04.236Z,75.80
2017-06-05T19:11:31.759Z,75.80
2017-06-05T19:13:59.284Z,75.60
2017-06-05T19:16:26.829Z,75.70
2017-06-05T19:18:54.356Z,76.40
2017-06-05T19:21:21.900Z,77.20
2017-06-05T19:23:49.428Z,77.40
2017-06-05T19:26:16.976Z,77.60
2017-06-05T19:28:44.504Z,77.60
2017-06-05T19:31:12.076Z,77.80
2017-06-05T19:33:39.598Z,78.30
2017-06-05T19:36:07.127Z,78.80
2017-06-05T19:38:34.681Z,78.90
2017-06-05T19:41:02.216Z,79.80
2017-06-05T19:43:29.759Z,79.80
2017-06-05T19:45:57.285Z,80.10
2017-06-05T19:48:25.597Z,81.10
2017-06-05T19:50:53.123Z,81.00
2017-06-05T19:53:21.465Z,81.00
2017-06-05T19:55:48.987Z,80.90
2017-06-05T19:58:16.512Z,81.10
2017-06-05T20:00:44.823Z,79.40
2017-06-05T20:03:12.346Z,79.30
2017-06-05T20:05:40.661Z,80.90
2017-06-05T20:08:08.187Z,80.90
2017-06-05T20:10:35.728Z,81.30
2017-06-05T20:13:03.251Z,81.80
2017-06-05T20:15:31.579Z,82.00
2017-06-05T20:17:59.103Z,81.90
2017-06-05T20:20:26.627Z,81.50
2017-06-05T20:22:54.167Z,81.10
2017-06-05T20:25:21.705Z,81.60
2017-06-05T20:27:49.251Z,81.70
2017-06-05T20:30:17.542Z,81.60
2017-06-05T20:32:45.088Z,81.60
2017-06-05T20:35:12.616Z,79.80
2017-06-05T20:37:40.179Z,78.50
2017-06-05T20:40:07.705Z,80.60
2017-06-05T20:42:35.996Z,82.50
2017-06-05T20:45:04.336Z,82.20
2017-06-05T20:47:31.859Z,82.10
2017-06-05T20:49:59.408Z,82.70
2017-06-05T20:52:26.933Z,82.00
2017-06-05T20:54:54.479Z,82.00
2017-06-05T20:57:22.771Z,82.40
2017-06-05T20:59:50.335Z,82.30
2017-06-05T21:02:17.858Z,82.70
2017-06-05T21:04:45.380Z,83.10
2017-06-05T21:07:12.923Z,83.60
2017-06-05T21:09:40.451Z,83.20
2017-06-05T21:12:07.999Z,82.40
2017-06-05T21:14:35.526Z,82.10
2017-06-05T21:17:03.095Z,81.90
2017-06-05T21:19:30.625Z,82.30
2017-06-05T21:21:58.143Z,81.70
2017-06-05T21:24:25.691Z,81.20
2017-06-05T21:26:53.220Z,80.90
2017-06-05T21:29:20.766Z,81.40
2017-06-05T21:31:49.059Z,83.30
2017-06-05T21:34:16.603Z,83.20
2017-06-05T21:36:44.895Z,82.50
2017-06-05T21:39:12.460Z,82.50
2017-06-05T21:41:39.982Z,80.50
2017-06-05T21:44:07.507Z,79.80
2017-06-05T21:46:35.815Z,80.70
2017-06-05T21:49:03.342Z,80.30
2017-06-05T21:51:31.655Z,82.60
2017-06-05T21:53:59.221Z,81.60
2017-06-05T21:56:26.791Z,81.80
2017-06-05T21:58:54.327Z,82.10
2017-06-05T22:01:21.850Z,81.90
2017-06-05T22:03:49.400Z,80.60
2017-06-05T22:06:16.928Z,80.90
2017-06-05T22:08:44.474Z,81.70
2017-06-05T22:11:11.999Z,82.10
2017-06-05T22:13:39.547Z,82.50
2017-06-05T22:16:07.839Z,83.20
2017-06-05T22:18:35.368Z,83.10
2017-06-05T22:21:03.683Z,83.40
2017-06-05T22:23:31.206Z,82.90
2017-06-05T22:25:59.520Z,79.20
2017-06-05T22:28:27.047Z,79.00
2017-06-05T22:30:55.390Z,81.30
2017-06-05T22:33:22.923Z,81.10
2017-06-05T22:35:50.452Z,81.60
2017-06-05T22:38:18.004Z,80.70
2017-06-05T22:40:46.293Z,80.00
2017-06-05T22:43:13.839Z,80.00
2017-06-05T22:45:41.369Z,80.70
2017-06-05T22:48:09.683Z,82.60
2017-06-05T22:50:37.212Z,82.60
2017-06-05T22:53:05.542Z,82.70
2017-06-05T22:55:33.070Z,82.70
2017-06-05T22:58:00.595Z,82.40
2017-06-05T23:00:28.144Z,82.10
2017-06-05T23:02:55.669Z,81.30
2017-06-05T23:05:23.215Z,81.70
2017-06-05T23:07:50.743Z,81.30
2017-06-05T23:10:18.315Z,81.40
2017-06-05T23:12:45.838Z,81.90
2017-06-05T23:15:13.363Z,82.70
2017-06-05T23:17:41.674Z,80.00
2017-06-05T23:20:09.198Z,80.00
2017-06-05T23:22:37.512Z,78.70
2017-06-05T23:25:05.040Z,78.70
2017-06-05T23:27:33.352Z,80.20
2017-06-05T23:30:00.879Z,80.20
2017-06-05T23:32:28.456Z,80.70
2017-06-05T23:34:56.748Z,81.40
2017-06-05T23:37:24.280Z,81.30
2017-06-05T23:39:51.836Z,81.80
2017-06-05T23:42:19.359Z,82.10
2017-06-05T23:44:46.907Z,82.70
2017-06-05T23:47:14.436Z,82.80
2017-06-05T23:49:41.986Z,82.20
2017-06-05T23:52:10.279Z,82.30
2017-06-05T23:54:37.824Z,82.40
2017-06-05T23:57:06.145Z,83.70
2017-06-05T23:59:33.666Z,83.70
